Time;durP1;ratioP1;P1;durP2;ratioP2;P2;SDS_P1;SDS_P2;PMS_P1;PMS_P2;Temp;Humidity;BMP_temperature;BMP_pressure;BME280_temperature;BME280_humidity;BME280_pressure;Samples;Min_cycle;Max_cycle;Signal;HPM_P1;HPM_P2
2023/06/24 00:01:23;;;;;;;;;5.00;5.00;;;;;24.28;46.41;101785.19;5113087;27;45656;-80
2023/06/24 00:03:52;;;;;;;;;6.50;5.50;;;;;24.29;46.51;101789.53;5097229;27;45485;-78
2023/06/24 00:06:22;;;;;;;;;5.00;5.00;;;;;24.29;46.60;101780.66;5096867;27;45612;-78
2023/06/24 00:08:48;;;;;;;;;5.00;5.00;;;;;24.26;46.81;101781.81;5097478;27;45615;-78
2023/06/24 00:11:14;;;;;;;;;5.75;5.00;;;;;24.29;47.22;101784.19;5097436;27;46706;-78
2023/06/24 00:13:40;;;;;;;;;5.50;4.50;;;;;24.11;47.06;101754.88;5097059;27;45924;-79
2023/06/24 00:16:09;;;;;;;;;4.00;4.00;;;;;24.23;46.86;101783.03;5097376;27;45541;-79
2023/06/24 00:21:56;;;;;;;;;5.00;5.00;;;;;24.09;47.38;101767.59;5096853;27;45927;-78
2023/06/24 00:24:25;;;;;;;;;2.25;2.25;;;;;24.05;47.76;101770.78;5096959;27;46391;-77
2023/06/24 00:26:54;;;;;;;;;5.00;5.00;;;;;23.84;47.28;101747.19;5096568;27;45651;-78
2023/06/24 00:29:20;;;;;;;;;6.25;5.75;;;;;24.03;47.20;101775.44;5097183;27;45754;-79
2023/06/24 00:31:45;;;;;;;;;6.50;5.50;;;;;24.00;47.57;101783.81;5096541;27;46320;-77
2023/06/24 00:34:11;;;;;;;;;7.00;6.00;;;;;23.87;47.69;101760.22;5096711;27;46809;-78
2023/06/24 00:36:37;;;;;;;;;7.00;6.25;;;;;23.86;47.84;101769.25;5096801;27;45642;-78
2023/06/24 00:39:03;;;;;;;;;6.00;6.00;;;;;23.91;48.11;101772.28;5096980;27;45511;-78
2023/06/24 00:41:29;;;;;;;;;4.00;4.00;;;;;23.61;48.09;101730.09;5096797;27;45840;-78
2023/06/24 00:43:57;;;;;;;;;7.00;6.25;;;;;23.86;48.05;101776.47;5096627;27;46027;-79
2023/06/24 00:46:25;;;;;;;;;5.00;5.00;;;;;23.78;47.67;101767.44;5095220;27;45620;-80
2023/06/24 00:52:15;;;;;;;;;6.25;5.25;;;;;23.65;47.75;101752.84;5096490;27;45625;-78
2023/06/24 00:54:41;;;;;;;;;5.50;5.50;;;;;23.62;47.83;101761.22;5096718;27;46013;-77
2023/06/24 00:57:07;;;;;;;;;8.50;6.00;;;;;23.49;47.91;101739.44;5096868;27;45718;-79
2023/06/24 00:59:34;;;;;;;;;8.00;7.75;;;;;23.63;48.23;101773.59;5095117;27;45776;-79
2023/06/24 01:02:04;;;;;;;;;7.25;6.00;;;;;23.54;47.55;101766.53;5096542;27;46846;-78
2023/06/24 01:04:30;;;;;;;;;7.25;7.00;;;;;23.64;48.00;101780.63;5096207;27;46261;-79
2023/06/24 01:06:57;;;;;;;;;5.00;4.50;;;;;23.34;47.88;101731.22;5096260;27;45668;-79
2023/06/24 01:09:23;;;;;;;;;9.50;9.00;;;;;23.62;48.17;101782.63;5096852;27;45660;-80
2023/06/24 01:11:48;;;;;;;;;7.25;7.00;;;;;23.54;47.87;101767.38;5096305;27;45596;-81
2023/06/24 01:14:14;;;;;;;;;7.00;7.00;;;;;23.60;47.65;101777.44;5096844;27;45726;-79
2023/06/24 01:23:36;;;;;;;;;10.00;9.00;;;;;23.53;47.92;101772.94;5096547;27;45589;-78
2023/06/24 01:26:20;;;;;;;;;8.25;8.25;;;;;23.50;47.63;101765.22;5096487;27;46356;-78
2023/06/24 01:29:06;;;;;;;;;8.25;7.00;;;;;23.43;47.97;101767.66;5112196;27;45764;-79
2023/06/24 01:31:36;;;;;;;;;5.00;5.00;;;;;23.38;47.68;101762.81;5097815;27;45565;-79
2023/06/24 01:34:14;;;;;;;;;4.25;4.00;;;;;23.32;47.05;101760.78;5096249;27;45740;-79
2023/06/24 01:36:45;;;;;;;;;5.00;5.00;;;;;23.27;47.17;101756.94;5096978;27;46528;-79
2023/06/24 01:39:12;;;;;;;;;6.00;5.75;;;;;23.21;47.20;101753.06;5096970;27;45674;-79
2023/06/24 01:41:44;;;;;;;;;5.00;5.00;;;;;23.14;47.81;101756.56;5096876;27;45508;-80
2023/06/24 01:44:15;;;;;;;;;4.00;4.00;;;;;23.11;47.18;101759.56;5095797;27;45607;-80
2023/06/24 01:46:44;;;;;;;;;3.25;3.00;;;;;23.09;47.19;101757.06;5096122;27;46333;-78
2023/06/24 01:49:14;;;;;;;;;4.50;4.00;;;;;23.12;47.78;101754.06;5095902;27;45774;-79
2023/06/24 01:51:43;;;;;;;;;5.50;4.50;;;;;23.12;47.25;101762.09;5096062;27;45679;-79
2023/06/24 01:54:13;;;;;;;;;4.00;4.00;;;;;23.12;47.88;101759.41;5095722;27;45948;-80
2023/06/24 01:56:43;;;;;;;;;5.00;5.00;;;;;23.04;47.68;101743.34;5096725;27;46344;-78
2023/06/24 01:59:10;;;;;;;;;5.00;5.00;;;;;23.09;47.76;101759.75;5096906;27;45625;-78
2023/06/24 02:01:38;;;;;;;;;5.75;3.00;;;;;23.02;47.46;101754.19;5095615;27;45591;-79
2023/06/24 02:04:07;;;;;;;;;8.00;5.25;;;;;23.05;47.90;101752.22;5095082;27;46503;-79
2023/06/24 02:06:34;;;;;;;;;5.00;4.75;;;;;23.03;47.26;101760.38;5095374;27;46228;-80
2023/06/24 02:09:03;;;;;;;;;5.00;4.75;;;;;22.93;47.61;101739.16;5095500;27;45638;-81
2023/06/24 02:11:31;;;;;;;;;5.75;4.00;;;;;22.92;47.69;101748.16;5095745;27;45503;-80
2023/06/24 02:14:00;;;;;;;;;4.00;4.00;;;;;22.92;47.89;101756.19;5094982;27;45733;-81
2023/06/24 02:16:29;;;;;;;;;4.50;4.50;;;;;22.82;47.99;101746.59;5095123;27;46444;-79
2023/06/24 02:18:56;;;;;;;;;4.00;4.00;;;;;22.86;47.81;101759.47;5094976;27;45750;-79
2023/06/24 02:21:23;;;;;;;;;4.75;4.00;;;;;22.85;47.94;101763.16;5095535;27;45647;-78
2023/06/24 02:23:50;;;;;;;;;3.75;3.75;;;;;22.74;48.24;101749.22;5095217;27;45545;-80
2023/06/24 02:26:16;;;;;;;;;5.50;5.50;;;;;22.80;48.38;101765.47;5095161;27;46585;-81
2023/06/24 02:28:46;;;;;;;;;4.75;4.50;;;;;22.68;48.49;101748.00;5095092;27;45650;-80
2023/06/24 02:31:13;;;;;;;;;4.00;4.00;;;;;22.66;48.83;101750.00;5095299;27;45537;-79
2023/06/24 02:33:38;;;;;;;;;5.25;5.25;;;;;22.76;48.60;101765.94;5094977;27;46575;-80
2023/06/24 02:36:04;;;;;;;;;4.50;4.00;;;;;22.52;48.83;101740.75;5095016;27;45984;-80
2023/06/24 02:38:30;;;;;;;;;6.75;5.00;;;;;22.68;49.13;101764.03;5095159;27;45588;-79
2023/06/24 02:40:56;;;;;;;;;4.50;4.00;;;;;22.61;49.00;101752.34;5093975;27;45968;-78
2023/06/24 02:43:21;;;;;;;;;8.25;6.75;;;;;22.63;49.32;101769.03;5094894;27;46351;-77
2023/06/24 02:45:48;;;;;;;;;5.00;4.00;;;;;22.58;49.49;101753.47;5094830;27;46399;-78
2023/06/24 02:48:15;;;;;;;;;5.25;5.00;;;;;22.62;49.28;101753.97;5094713;27;45562;-78
2023/06/24 02:50:43;;;;;;;;;6.00;5.00;;;;;22.58;48.86;101760.66;5110932;27;45833;-79
2023/06/24 02:53:11;;;;;;;;;6.00;4.75;;;;;22.60;49.48;101753.31;5094617;27;45597;-80
2023/06/24 02:55:38;;;;;;;;;5.50;4.75;;;;;22.60;49.57;101766.69;5094594;27;45814;-78
2023/06/24 02:58:07;;;;;;;;;7.00;4.50;;;;;22.56;49.92;101759.97;5094672;27;45756;-79
2023/06/24 03:00:33;;;;;;;;;7.00;6.00;;;;;22.49;49.87;101759.78;5095248;27;45818;-80
2023/06/24 03:03:01;;;;;;;;;6.00;5.25;;;;;22.48;50.20;101754.59;5094804;27;46845;-80
2023/06/24 03:09:32;;;;;;;;;5.00;4.00;;;;;22.27;50.01;101732.75;5089808;27;45806;-79
2023/06/24 03:11:57;;;;;;;;;5.25;4.00;;;;;22.39;50.02;101756.38;5093281;27;46047;-78
2023/06/24 03:14:22;;;;;;;;;5.50;5.00;;;;;22.14;49.91;101719.81;5094310;27;46495;-78
2023/06/24 03:16:48;;;;;;;;;4.25;4.25;;;;;22.34;50.30;101755.19;5094772;27;45758;-77
2023/06/24 03:19:13;;;;;;;;;6.50;6.25;;;;;22.32;50.24;101758.00;5094293;27;45680;-78
2023/06/24 03:21:39;;;;;;;;;4.75;4.50;;;;;22.29;50.22;101757.47;5094552;27;45583;-76
2023/06/24 03:24:04;;;;;;;;;4.75;4.75;;;;;22.27;50.45;101760.31;5094353;27;45532;-78
2023/06/24 03:26:38;;;;;;;;;6.25;5.00;;;;;22.26;50.24;101755.09;5094842;27;45845;-78
2023/06/24 03:29:03;;;;;;;;;5.00;4.00;;;;;22.14;49.40;101741.16;5097739;27;46416;-78
2023/06/24 03:31:29;;;;;;;;;5.00;4.50;;;;;22.18;49.56;101739.88;5097645;27;45692;-79
2023/06/24 03:33:55;;;;;;;;;5.25;4.50;;;;;22.22;49.70;101757.25;5100182;27;45509;-78
2023/06/24 03:36:20;;;;;;;;;4.25;3.75;;;;;22.22;49.87;101751.91;5103239;27;45505;-80
2023/06/24 03:38:46;;;;;;;;;3.00;3.00;;;;;22.13;48.96;101739.53;5103509;27;46156;-79
2023/06/24 03:41:11;;;;;;;;;3.50;3.00;;;;;22.13;49.30;101739.53;5103237;27;45770;-79
2023/06/24 03:43:37;;;;;;;;;6.75;4.25;;;;;22.17;49.11;101760.41;5096890;27;45461;-79
2023/06/24 03:46:02;;;;;;;;;6.00;6.00;;;;;22.16;49.79;101752.53;5095546;27;45640;-78
2023/06/24 03:48:28;;;;;;;;;5.00;4.50;;;;;22.16;49.50;101756.06;5094340;27;45626;-79
2023/06/24 03:54:15;;;;;;;;;4.25;4.25;;;;;22.15;49.86;101770.38;5094024;27;46055;-79
2023/06/24 03:56:40;;;;;;;;;3.50;3.50;;;;;22.14;49.60;101766.03;5094244;27;46931;-80
2023/06/24 03:59:05;;;;;;;;;4.25;4.25;;;;;22.18;50.07;101766.59;5094124;27;45525;-77
2023/06/24 04:01:31;;;;;;;;;6.00;5.00;;;;;22.15;49.78;101767.72;5094237;27;45688;-78
2023/06/24 04:03:57;;;;;;;;;5.00;4.00;;;;;22.17;49.54;101765.75;5093911;27;46225;-81
2023/06/24 04:06:23;;;;;;;;;3.00;3.00;;;;;22.24;49.84;101778.47;5092305;27;46977;-79
2023/06/24 04:08:48;;;;;;;;;6.25;5.75;;;;;22.27;49.97;101778.16;5095587;27;45908;-78
2023/06/24 04:11:14;;;;;;;;;4.50;4.50;;;;;22.28;49.95;101775.34;5097645;27;45675;-79
2023/06/24 04:13:39;;;;;;;;;6.50;6.00;;;;;22.30;49.66;101781.34;5094409;27;45675;-79
2023/06/24 04:16:05;;;;;;;;;5.75;5.75;;;;;22.24;49.76;101760.59;5098178;27;45679;-78
2023/06/24 04:18:30;;;;;;;;;5.00;5.00;;;;;22.22;50.16;101753.75;5100641;27;45761;-79
2023/06/24 04:24:17;;;;;;;;;5.00;4.25;;;;;22.35;50.11;101771.03;5098393;27;45584;-80
2023/06/24 04:26:43;;;;;;;;;4.00;4.00;;;;;22.33;50.00;101766.84;5097241;27;45608;-78
2023/06/24 04:29:08;;;;;;;;;5.00;4.50;;;;;22.36;49.64;101777.19;5097030;27;45677;-78
2023/06/24 04:31:33;;;;;;;;;5.75;5.00;;;;;22.32;49.52;101770.50;5097048;27;45683;-81
2023/06/24 04:33:59;;;;;;;;;4.25;4.25;;;;;22.19;50.20;101746.88;5096774;27;46558;-78
2023/06/24 04:39:46;;;;;;;;;4.50;4.25;;;;;22.39;50.17;101771.56;5096648;27;45614;-79
2023/06/24 04:42:12;;;;;;;;;4.75;4.75;;;;;22.22;50.28;101737.72;5095397;27;45931;-79
2023/06/24 04:44:37;;;;;;;;;6.75;5.75;;;;;22.42;50.13;101763.22;5096511;27;45603;-79
2023/06/24 04:47:03;;;;;;;;;3.25;3.00;;;;;22.43;49.89;101768.41;5096449;27;45890;-80
2023/06/24 04:49:28;;;;;;;;;3.75;3.75;;;;;22.41;49.67;101764.22;5096584;27;45707;-79
2023/06/24 04:51:53;;;;;;;;;5.00;5.00;;;;;22.44;49.71;101767.44;5096734;27;45548;-78
2023/06/24 04:54:19;;;;;;;;;4.00;3.00;;;;;22.43;49.94;101771.09;5096655;27;45600;-77
2023/06/24 04:56:45;;;;;;;;;6.00;5.00;;;;;22.50;49.98;101779.31;5096325;27;45625;-78
2023/06/24 04:59:11;;;;;;;;;6.00;5.50;;;;;22.44;49.79;101769.25;5096544;27;45601;-78
2023/06/24 05:01:36;;;;;;;;;4.50;3.75;;;;;22.53;48.61;101778.97;5094561;27;45686;-77
2023/06/24 05:04:02;;;;;;;;;4.00;4.00;;;;;22.40;48.85;101757.22;5095991;27;46249;-78
2023/06/24 05:09:51;;;;;;;;;3.25;3.00;;;;;22.53;48.36;101770.97;5085073;27;45873;-79
2023/06/24 05:12:16;;;;;;;;;4.00;3.25;;;;;22.53;48.04;101766.47;5096473;27;45650;-78
2023/06/24 05:14:41;;;;;;;;;4.25;4.00;;;;;22.40;47.29;101751.88;5096123;27;45685;-78
2023/06/24 05:17:07;;;;;;;;;4.00;3.75;;;;;22.53;47.00;101766.47;5096024;27;45664;-75
2023/06/24 05:19:32;;;;;;;;;5.00;4.00;;;;;22.49;46.90;101764.28;5096076;27;45612;-77
2023/06/24 05:25:20;;;;;;;;;3.75;3.00;;;;;22.47;46.56;101771.59;5095499;27;45763;-77
2023/06/24 05:27:45;;;;;;;;;4.00;3.50;;;;;22.50;47.24;101768.63;5094908;27;46419;-75
2023/06/24 05:30:12;;;;;;;;;4.00;3.75;;;;;22.52;46.99;101774.63;5095686;27;45629;-77
2023/06/24 05:32:38;;;;;;;;;5.50;5.00;;;;;22.47;47.31;101767.09;5095511;27;45924;-77
2023/06/24 05:35:04;;;;;;;;;4.00;4.00;;;;;22.53;46.67;101779.81;5095618;27;46424;-77
2023/06/24 05:40:52;;;;;;;;;5.50;4.00;;;;;22.58;48.13;101774.00;5095602;27;45684;-75
2023/06/24 05:43:18;;;;;;;;;6.25;5.50;;;;;22.59;48.27;101784.53;5095532;27;45655;-77
2023/06/24 05:45:43;;;;;;;;;3.50;3.50;;;;;22.60;48.18;101777.38;5093892;27;48156;-78
2023/06/24 05:48:09;;;;;;;;;6.25;5.00;;;;;22.60;48.17;101780.88;5095388;27;45594;-77
2023/06/24 05:50:34;;;;;;;;;5.00;5.00;;;;;22.64;48.18;101777.88;5095112;27;45679;-75
2023/06/24 05:52:59;;;;;;;;;5.50;4.50;;;;;22.65;47.49;101782.22;5095385;27;45847;-77
2023/06/24 05:55:27;;;;;;;;;5.00;4.00;;;;;22.66;47.86;101781.25;5095079;27;46476;-78
2023/06/24 05:57:53;;;;;;;;;5.75;4.75;;;;;22.66;47.50;101775.91;5094976;27;46252;-76
2023/06/24 06:00:18;;;;;;;;;7.00;5.00;;;;;22.65;47.73;101776.88;5095438;27;45902;-79
2023/06/24 06:02:45;;;;;;;;;3.50;3.00;;;;;22.63;47.59;101768.19;5094745;27;45617;-78
2023/06/24 06:05:11;;;;;;;;;6.50;6.00;;;;;22.70;47.78;101780.75;5094714;27;46422;-79
2023/06/24 06:10:58;;;;;;;;;5.75;5.25;;;;;22.73;47.97;101777.78;5083514;27;45720;-78
2023/06/24 06:13:23;;;;;;;;;5.00;5.00;;;;;22.77;47.70;101781.84;5094954;27;45808;-76
2023/06/24 06:15:49;;;;;;;;;5.00;5.00;;;;;22.77;48.28;101773.81;5094837;27;46625;-78
2023/06/24 06:18:14;;;;;;;;;7.25;7.00;;;;;22.80;47.89;101781.50;5094640;27;47204;-77
2023/06/24 06:20:39;;;;;;;;;7.50;5.25;;;;;22.78;48.14;101777.34;5094778;27;45626;-77
2023/06/24 06:26:26;;;;;;;;;4.75;4.00;;;;;22.78;47.93;101772.00;5094644;27;45585;-77
2023/06/24 06:28:53;;;;;;;;;6.50;5.50;;;;;22.85;47.40;101781.03;5110716;27;46964;-79
2023/06/24 06:31:19;;;;;;;;;6.00;5.00;;;;;22.75;47.50;101764.28;5095433;27;45697;-79
2023/06/24 06:33:44;;;;;;;;;5.25;4.00;;;;;22.91;47.66;101780.38;5111276;27;46004;-78
2023/06/24 06:36:11;;;;;;;;;5.50;4.50;;;;;22.91;47.05;101789.25;5095038;27;46402;-77
2023/06/24 06:38:36;;;;;;;;;6.00;5.00;;;;;22.93;47.16;101784.59;5093566;27;46211;-77
2023/06/24 06:41:01;;;;;;;;;4.25;4.25;;;;;22.94;46.72;101780.06;5094930;27;46143;-77
2023/06/24 06:43:27;;;;;;;;;6.00;5.00;;;;;22.96;47.18;101775.38;5093320;27;45772;-77
2023/06/24 06:45:52;;;;;;;;;6.00;5.75;;;;;22.95;47.30;101776.38;5094348;27;47200;-76
2023/06/24 06:48:18;;;;;;;;;4.00;4.00;;;;;22.99;46.92;101777.75;5094339;27;47058;-76
2023/06/24 06:50:45;;;;;;;;;6.00;4.50;;;;;22.95;46.67;101771.88;5094426;27;45585;-76
2023/06/24 06:56:32;;;;;;;;;5.25;5.25;;;;;23.00;46.96;101782.91;5094082;27;46049;-79
2023/06/24 06:58:57;;;;;;;;;5.00;4.75;;;;;23.02;47.35;101780.94;5092834;27;47210;-75
2023/06/24 07:01:22;;;;;;;;;4.75;4.00;;;;;23.06;46.72;101780.59;5094428;27;45666;-77
2023/06/24 07:03:49;;;;;;;;;4.50;4.50;;;;;23.05;46.73;101777.09;5094979;27;45697;-78
2023/06/24 07:06:15;;;;;;;;;6.00;4.75;;;;;23.00;46.77;101766.03;5095110;27;46775;-78
2023/06/24 07:12:02;;;;;;;;;4.25;4.25;;;;;23.12;46.74;101778.13;5083607;27;45756;-79
2023/06/24 07:14:28;;;;;;;;;6.50;5.75;;;;;23.14;46.85;101780.66;5093895;27;45543;-79
2023/06/24 07:16:53;;;;;;;;;5.75;5.25;;;;;23.11;46.19;101767.59;5093425;27;46426;-82
2023/06/24 07:19:20;;;;;;;;;4.25;3.50;;;;;23.17;46.17;101780.31;5096171;27;46237;-84
2023/06/24 07:21:47;;;;;;;;;6.00;5.00;;;;;23.02;46.49;101742.66;5098054;27;45571;-87
2023/06/24 07:24:12;;;;;;;;;6.00;4.75;;;;;23.09;45.72;101754.41;5095078;27;45899;-77
2023/06/24 07:26:38;;;;;;;;;6.00;5.00;;;;;23.25;46.39;101773.16;5094546;27;45833;-79
2023/06/24 07:29:06;;;;;;;;;4.50;4.00;;;;;23.24;46.10;101768.81;5095219;27;46367;-79
2023/06/24 07:31:32;;;;;;;;;4.50;4.00;;;;;23.22;45.58;101754.75;5094265;27;45713;-77
2023/06/24 07:33:57;;;;;;;;;3.00;3.00;;;;;23.32;46.05;101768.81;5094244;27;45652;-75
2023/06/24 07:36:22;;;;;;;;;4.25;4.25;;;;;23.29;45.95;101761.13;5093734;27;45536;-77
2023/06/24 07:42:09;;;;;;;;;5.50;4.75;;;;;23.42;46.59;101771.38;5094858;27;45525;-79
2023/06/24 07:44:36;;;;;;;;;5.00;5.00;;;;;23.44;46.27;101772.03;5093736;27;45774;-79
2023/06/24 07:47:03;;;;;;;;;5.50;4.00;;;;;23.50;45.87;101773.25;5093527;27;45695;-76
2023/06/24 07:49:28;;;;;;;;;5.00;4.25;;;;;23.50;46.10;101773.25;5094010;27;45908;-76
2023/06/24 07:51:53;;;;;;;;;7.00;5.50;;;;;23.45;46.15;101752.31;5096358;27;45521;-77
2023/06/24 07:57:45;;;;;;;;;4.75;4.50;;;;;23.62;45.83;101766.56;5097593;27;45686;-76
2023/06/24 08:00:11;;;;;;;;;6.25;4.50;;;;;23.62;45.75;101772.75;5097267;27;45926;-77
2023/06/24 08:02:36;;;;;;;;;6.00;5.00;;;;;23.59;45.57;101750.88;5096365;27;45721;-77
2023/06/24 08:05:01;;;;;;;;;5.25;5.00;;;;;23.70;45.90;101761.22;5097335;27;45516;-78
2023/06/24 08:07:27;;;;;;;;;4.50;4.50;;;;;23.73;45.68;101767.09;5097102;27;45536;-77
2023/06/24 08:09:52;;;;;;;;;4.25;4.00;;;;;23.80;45.07;101769.94;5096741;27;45737;-77
2023/06/24 08:12:17;;;;;;;;;4.50;4.50;;;;;23.79;45.69;101754.88;5096871;27;45647;-76
2023/06/24 08:14:43;;;;;;;;;5.25;4.25;;;;;23.81;45.18;101747.50;5112903;27;45956;-75
2023/06/24 08:17:08;;;;;;;;;6.00;6.00;;;;;23.92;45.34;101755.19;5096905;27;45605;-76
2023/06/24 08:19:33;;;;;;;;;6.00;5.00;;;;;23.99;45.43;101758.03;5095976;27;46224;-77
2023/06/24 08:21:59;;;;;;;;;6.00;5.25;;;;;24.03;44.96;101756.69;5095937;27;45661;-78
2023/06/24 08:27:47;;;;;;;;;4.75;4.50;;;;;24.10;44.95;101755.88;5095495;27;46260;-78
2023/06/24 08:30:17;;;;;;;;;4.00;4.00;;;;;24.07;44.89;101740.16;5094285;27;46891;-76
2023/06/24 08:32:44;;;;;;;;;7.50;5.50;;;;;24.20;44.63;101753.03;5111526;27;45631;-76
2023/06/24 08:35:10;;;;;;;;;6.00;4.75;;;;;24.23;45.07;101753.56;5096026;27;45572;-75
2023/06/24 08:37:37;;;;;;;;;4.00;4.00;;;;;24.28;44.65;101757.56;5095405;27;46521;-76
2023/06/24 08:43:24;;;;;;;;;5.75;5.75;;;;;24.27;44.35;101729.94;5095232;27;45636;-77
2023/06/24 08:45:50;;;;;;;;;5.00;5.00;;;;;24.38;44.44;101742.97;5094214;27;45590;-78
2023/06/24 08:48:19;;;;;;;;;6.50;5.00;;;;;24.44;44.88;101744.13;5095941;27;46411;-78
2023/06/24 08:50:51;;;;;;;;;6.75;5.25;;;;;24.46;44.50;101740.25;5095122;27;47326;-75
2023/06/24 08:53:20;;;;;;;;;5.00;5.00;;;;;24.48;44.60;101738.25;5096437;27;45672;-76
2023/06/24 08:55:46;;;;;;;;;7.50;6.00;;;;;24.55;45.04;101736.56;5096737;27;45684;-77
2023/06/24 08:58:13;;;;;;;;;4.50;4.50;;;;;24.62;44.98;101734.00;5096913;27;47432;-77
2023/06/24 09:00:42;;;;;;;;;6.75;6.00;;;;;24.66;44.68;101728.16;5096794;27;46639;-77
2023/06/24 09:03:08;;;;;;;;;6.00;6.00;;;;;24.71;44.56;101732.13;5094662;27;45562;-78
2023/06/24 09:05:35;;;;;;;;;6.00;5.00;;;;;24.74;44.85;101726.41;5096507;27;45459;-78
2023/06/24 09:08:01;;;;;;;;;6.50;5.75;;;;;24.74;45.06;101721.06;5096111;27;47759;-76
2023/06/24 09:13:53;;;;;;;;;5.00;4.25;;;;;24.88;44.42;101720.38;5084474;27;45983;-77
2023/06/24 09:16:19;;;;;;;;;10.50;10.50;;;;;24.93;44.78;101716.16;5096048;27;45836;-76
2023/06/24 09:18:49;;;;;;;;;6.25;6.00;;;;;24.98;45.04;101712.94;5095975;27;46178;-77
2023/06/24 09:21:21;;;;;;;;;5.75;5.75;;;;;25.03;44.89;101711.41;5095760;27;47222;-77
2023/06/24 09:23:47;;;;;;;;;7.25;6.75;;;;;25.02;44.59;101699.00;5095421;27;45655;-77
2023/06/24 09:26:12;;;;;;;;;5.50;5.25;;;;;25.15;44.99;101702.97;5095885;27;45775;-77
2023/06/24 09:28:37;;;;;;;;;6.25;5.00;;;;;25.19;44.69;101707.78;5095410;27;46532;-77
2023/06/24 09:31:09;;;;;;;;;6.00;6.00;;;;;25.23;44.53;101700.22;5095873;27;45669;-78
2023/06/24 09:33:35;;;;;;;;;8.00;7.00;;;;;25.29;44.50;101702.19;5095688;27;45719;-78
2023/06/24 09:36:04;;;;;;;;;7.25;7.25;;;;;25.27;44.12;101691.63;5095582;27;45753;-77
2023/06/24 09:38:37;;;;;;;;;5.75;5.00;;;;;25.23;43.60;101670.69;5095244;27;47696;-77
2023/06/24 09:41:04;;;;;;;;;5.00;5.00;;;;;25.37;43.80;101697.56;5095273;27;46291;-76
2023/06/24 09:43:36;;;;;;;;;7.50;6.25;;;;;25.39;43.72;101687.50;5095226;27;45669;-76
2023/06/24 09:46:02;;;;;;;;;6.25;5.75;;;;;25.41;43.77;101684.66;5095354;27;45631;-77
2023/06/24 09:48:28;;;;;;;;;6.00;5.50;;;;;25.44;44.16;101684.28;5094868;27;47519;-77
2023/06/24 09:51:00;;;;;;;;;6.75;5.50;;;;;25.47;43.58;101678.56;5095444;27;46081;-75
2023/06/24 09:53:32;;;;;;;;;6.75;6.00;;;;;25.51;43.58;101679.88;5095580;27;45689;-77
2023/06/24 09:59:24;;;;;;;;;8.25;6.25;;;;;25.34;43.82;101632.72;5096134;27;46156;-77
2023/06/24 10:01:53;;;;;;;;;7.75;6.25;;;;;25.63;42.76;101675.78;5095981;27;46189;-77
2023/06/24 10:04:20;;;;;;;;;7.00;6.00;;;;;25.62;43.22;101660.69;5095520;27;45533;-76
2023/06/24 10:06:46;;;;;;;;;5.00;5.00;;;;;25.64;42.99;101649.78;5094334;27;45718;-78
2023/06/24 10:09:13;;;;;;;;;6.25;6.25;;;;;25.71;43.04;101656.91;5095126;27;45747;-76
2023/06/24 10:11:39;;;;;;;;;7.50;7.50;;;;;25.69;43.10;101648.22;5093307;27;47051;-75
2023/06/24 10:14:05;;;;;;;;;8.50;8.00;;;;;25.75;42.90;101650.16;5092819;27;45697;-75
2023/06/24 10:16:30;;;;;;;;;6.75;6.50;;;;;25.76;43.29;101645.63;5094952;27;45820;-76
2023/06/24 10:19:02;;;;;;;;;6.25;5.75;;;;;25.78;43.46;101649.78;5094954;27;45739;-77
2023/06/24 10:21:54;;;;;;;;;8.00;7.25;;;;;25.87;43.67;101642.47;5095028;27;47265;-76
2023/06/24 10:24:39;;;;;;;;;9.25;7.25;;;;;25.94;43.60;101642.59;5092610;27;45604;-77
2023/06/24 10:27:24;;;;;;;;;8.00;7.75;;;;;26.00;43.78;101629.25;5094707;27;45828;-77
2023/06/24 10:29:52;;;;;;;;;9.75;9.00;;;;;26.04;43.74;101624.34;5094477;27;47326;-77
2023/06/24 10:32:19;;;;;;;;;8.00;7.75;;;;;26.12;43.47;101633.16;5092780;27;45920;-76
2023/06/24 10:34:54;;;;;;;;;7.00;6.50;;;;;26.19;43.03;101631.38;5094374;27;45542;-77
2023/06/24 10:37:33;;;;;;;;;8.00;7.00;;;;;26.06;42.84;101593.59;5094306;27;45903;-77
2023/06/24 10:40:00;;;;;;;;;8.25;8.25;;;;;26.27;42.78;101615.19;5092422;27;46807;-76
2023/06/24 10:42:38;;;;;;;;;10.00;9.75;;;;;26.36;43.23;101617.78;5092550;27;46333;-78
2023/06/24 10:45:09;;;;;;;;;9.00;9.00;;;;;26.39;42.78;101609.34;5094568;27;45839;-77
2023/06/24 10:47:56;;;;;;;;;8.25;7.00;;;;;26.42;42.83;101615.19;5094268;27;45714;-77
2023/06/24 10:50:23;;;;;;;;;11.00;8.50;;;;;26.48;42.38;101610.91;5093979;27;47415;-76
2023/06/24 10:52:56;;;;;;;;;6.75;6.75;;;;;26.52;42.57;101612.19;5094257;27;47517;-77
2023/06/24 10:55:28;;;;;;;;;7.50;7.00;;;;;26.53;43.03;101603.09;5093744;27;45721;-76
2023/06/24 10:57:53;;;;;;;;;9.00;8.00;;;;;26.60;41.79;101601.34;5094528;27;45646;-77
2023/06/24 11:00:20;;;;;;;;;8.00;7.00;;;;;26.62;41.87;101605.47;5093881;27;47201;-80
2023/06/24 11:02:46;;;;;;;;;8.50;8.00;;;;;26.65;41.98;101598.91;5095099;27;45918;-78
2023/06/24 11:05:12;;;;;;;;;7.75;7.00;;;;;26.67;41.48;101600.38;5095803;27;45574;-78
2023/06/24 11:07:38;;;;;;;;;39.75;33.25;;;;;26.69;41.89;101590.25;5096132;27;45694;-78
2023/06/24 11:10:06;;;;;;;;;8.50;8.50;;;;;26.75;42.10;101585.97;5095350;27;46578;-79
2023/06/24 11:12:37;;;;;;;;;6.75;6.75;;;;;26.80;41.96;101593.47;5094040;27;46025;-78
2023/06/24 11:15:07;;;;;;;;;8.75;8.00;;;;;26.78;41.05;101582.06;5093113;27;45561;-80
2023/06/24 11:17:34;;;;;;;;;9.50;9.00;;;;;26.86;41.56;101588.16;5093681;27;45509;-79
2023/06/24 11:20:00;;;;;;;;;11.25;8.25;;;;;26.89;41.54;101592.34;5095796;27;46866;-79
2023/06/24 11:22:27;;;;;;;;;7.25;7.25;;;;;26.88;41.10;101580.78;5095548;27;45803;-80
2023/06/24 11:24:53;;;;;;;;;12.00;11.00;;;;;26.96;41.28;101586.03;5097626;27;45619;-80
2023/06/24 11:30:40;;;;;;;;;9.50;8.50;;;;;26.96;41.20;101552.91;5093654;27;45643;-80
2023/06/24 11:33:05;;;;;;;;;11.25;10.50;;;;;27.09;41.18;101566.47;5093821;27;46172;-80
2023/06/24 11:35:35;;;;;;;;;9.75;9.00;;;;;27.15;40.64;101563.03;5092331;27;45860;-79
2023/06/24 11:38:00;;;;;;;;;9.75;9.00;;;;;27.16;40.46;101559.28;5093932;27;45622;-78
2023/06/24 11:40:25;;;;;;;;;9.50;9.00;;;;;27.21;40.37;101558.72;5093622;27;46804;-79
2023/06/24 11:42:51;;;;;;;;;8.00;7.75;;;;;27.23;39.71;101551.28;5093533;27;45595;-79
2023/06/24 11:45:21;;;;;;;;;10.00;9.50;;;;;27.22;40.04;101545.06;5094114;27;45907;-84
2023/06/24 11:47:46;;;;;;;;;10.00;9.25;;;;;27.29;40.14;101542.41;5093988;27;45785;-80
2023/06/24 11:50:11;;;;;;;;;8.50;7.00;;;;;27.31;39.50;101543.91;5093548;27;46191;-79
2023/06/24 11:52:45;;;;;;;;;11.50;9.50;;;;;27.34;39.85;101543.50;5093441;27;46194;-79
2023/06/24 11:55:23;;;;;;;;;8.00;8.00;;;;;27.38;39.59;101542.06;5093404;27;45628;-80
2023/06/24 12:01:10;;;;;;;;;9.00;8.00;;;;;27.49;40.36;101524.53;5093396;27;45714;-79
2023/06/24 12:03:35;;;;;;;;;9.00;9.00;;;;;27.52;39.42;101524.19;5092640;27;46024;-80
2023/06/24 12:06:00;;;;;;;;;7.50;6.25;;;;;27.48;39.84;101515.63;5091957;27;45848;-79
2023/06/24 12:08:26;;;;;;;;;9.50;8.75;;;;;27.63;39.67;101530.88;5093504;27;45725;-81
2023/06/24 12:10:53;;;;;;;;;10.50;10.00;;;;;27.65;39.00;101520.72;5091964;27;46392;-80
2023/06/24 12:13:27;;;;;;;;;8.75;8.50;;;;;27.70;39.06;101519.09;5091441;27;46100;-88
2023/06/24 12:15:52;;;;;;;;;9.00;9.00;;;;;27.68;39.53;101502.31;5096760;27;45727;-82
2023/06/24 12:18:17;;;;;;;;;11.00;9.00;;;;;27.67;39.09;101489.06;5093077;27;45846;-83
2023/06/24 12:20:43;;;;;;;;;9.25;8.75;;;;;27.85;39.74;101500.13;5095159;27;46484;-81
2023/06/24 12:23:08;;;;;;;;;8.75;7.50;;;;;27.88;38.44;101494.34;5094117;27;45546;-82
2023/06/24 12:25:34;;;;;;;;;7.00;7.00;;;;;27.85;38.23;101483.97;5093791;27;45745;-86
2023/06/24 12:31:20;;;;;;;;;9.25;8.50;;;;;27.96;37.95;101480.69;5091949;27;45838;-81
2023/06/24 12:33:46;;;;;;;;;9.00;8.00;;;;;28.07;38.15;101490.88;5093172;27;45609;-78
2023/06/24 12:36:11;;;;;;;;;10.00;8.25;;;;;28.12;38.63;101488.47;5092520;27;45735;-76
2023/06/24 12:38:36;;;;;;;;;9.00;9.00;;;;;28.16;38.01;101476.22;5096004;27;45652;-76
2023/06/24 12:41:02;;;;;;;;;9.50;8.00;;;;;28.17;38.30;101474.38;5095498;27;46312;-78
2023/06/24 12:46:48;;;;;;;;;8.00;7.50;;;;;28.26;37.34;101471.28;5095845;27;45490;-78
2023/06/24 12:49:14;;;;;;;;;6.75;6.75;;;;;28.31;37.55;101473.34;5096277;27;45658;-74